Time;durP1;ratioP1;P1;durP2;ratioP2;P2;SDS_P1;SDS_P2;PMS_P1;PMS_P2;Temp;Humidity;BMP_temperature;BMP_pressure;BME280_temperature;BME280_humidity;BME280_pressure;Samples;Min_cycle;Max_cycle;Signal;HPM_P1;HPM_P2
2023/09/23 00:01:09;;;;;;;2.83;1.38;;;;;;;;;;5081692;28;20048;-74
2023/09/23 00:03:41;;;;;;;3.92;1.30;;;;;;;;;;5063916;28;20051;-74
2023/09/23 00:06:12;;;;;;;1.73;1.10;;;;;;;;;;5081722;28;20048;-75
2023/09/23 00:08:46;;;;;;;1.55;1.05;;;;;;;;;;5082108;28;20048;-75
2023/09/23 00:11:18;;;;;;;2.58;1.10;;;;;;;;;;5092170;28;20040;-75
2023/09/23 00:13:49;;;;;;;5.20;0.90;;;;;;;;;;5090497;28;20063;-75
2023/09/23 00:16:21;;;;;;;4.47;1.02;;;;;;;;;;5090177;28;20051;-74
2023/09/23 00:18:53;;;;;;;1.58;1.00;;;;;;;;;;5091241;28;20052;-74
2023/09/23 00:21:24;;;;;;;2.55;0.90;;;;;;;;;;5092599;28;20059;-74
2023/09/23 00:23:57;;;;;;;1.42;1.00;;;;;;;;;;5104522;28;20067;-72
2023/09/23 00:26:28;;;;;;;2.08;1.10;;;;;;;;;;5106460;28;20051;-74
2023/09/23 00:28:59;;;;;;;1.10;0.80;;;;;;;;;;5106190;28;20414;-73
2023/09/23 00:31:29;;;;;;;3.17;1.15;;;;;;;;;;5106017;28;20492;-75
2023/09/23 00:34:00;;;;;;;4.13;1.52;;;;;;;;;;5105277;28;20521;-75
2023/09/23 00:36:31;;;;;;;3.38;1.15;;;;;;;;;;5086142;28;20074;-75
2023/09/23 00:39:03;;;;;;;7.85;1.48;;;;;;;;;;5105871;28;20054;-74
2023/09/23 00:41:34;;;;;;;3.63;1.48;;;;;;;;;;5121314;27;20048;-75
2023/09/23 00:44:05;;;;;;;4.43;1.50;;;;;;;;;;5106367;28;20044;-75
2023/09/23 00:46:37;;;;;;;3.75;1.27;;;;;;;;;;5121891;27;20437;-74
2023/09/23 00:49:08;;;;;;;3.17;1.70;;;;;;;;;;5105519;28;20044;-75
2023/09/23 00:51:41;;;;;;;3.65;1.60;;;;;;;;;;5105149;28;20054;-76
2023/09/23 00:54:14;;;;;;;3.20;1.48;;;;;;;;;;5105923;28;20070;-74
2023/09/23 00:56:46;;;;;;;2.85;0.82;;;;;;;;;;5120508;27;20070;-75
2023/09/23 00:59:17;;;;;;;5.72;1.30;;;;;;;;;;5104725;28;20055;-74
2023/09/23 01:01:51;;;;;;;1.60;1.13;;;;;;;;;;5102518;28;20058;-77
2023/09/23 01:04:22;;;;;;;2.95;1.27;;;;;;;;;;5069870;28;20051;-74
2023/09/23 01:06:53;;;;;;;3.30;1.45;;;;;;;;;;5105674;28;20043;-75
2023/09/23 01:09:25;;;;;;;4.55;1.67;;;;;;;;;;5105333;28;20047;-75
2023/09/23 01:11:56;;;;;;;2.67;1.67;;;;;;;;;;5105247;28;20051;-74
2023/09/23 01:14:28;;;;;;;4.47;1.80;;;;;;;;;;5105555;28;20546;-75
2023/09/23 01:16:58;;;;;;;3.88;2.33;;;;;;;;;;5087247;28;20048;-73
2023/09/23 01:19:29;;;;;;;3.70;2.08;;;;;;;;;;5120673;27;20059;-74
2023/09/23 01:22:00;;;;;;;3.20;1.65;;;;;;;;;;5105247;28;20058;-75
2023/09/23 01:24:32;;;;;;;2.92;1.67;;;;;;;;;;5104832;28;20052;-75
2023/09/23 01:27:03;;;;;;;3.95;1.63;;;;;;;;;;5104897;28;20384;-75
2023/09/23 01:29:34;;;;;;;2.90;1.60;;;;;;;;;;5105316;28;20044;-74
2023/09/23 01:32:48;;;;;;;3.47;1.42;;;;;;;;;;5119871;27;20055;-79
2023/09/23 01:35:23;;;;;;;2.90;1.58;;;;;;;;;;5105016;28;20048;-75
2023/09/23 01:37:53;;;;;;;3.78;1.30;;;;;;;;;;5105115;28;20552;-74
2023/09/23 01:40:29;;;;;;;6.53;1.42;;;;;;;;;;5104971;28;20605;-75
2023/09/23 01:43:01;;;;;;;3.58;1.65;;;;;;;;;;5104456;28;20039;-75
2023/09/23 01:45:33;;;;;;;3.97;1.10;;;;;;;;;;5105098;28;20491;-74
2023/09/23 01:48:03;;;;;;;3.47;1.00;;;;;;;;;;5086605;28;20392;-75
2023/09/23 01:50:34;;;;;;;2.22;0.95;;;;;;;;;;5085809;28;20048;-74
2023/09/23 01:53:05;;;;;;;2.25;1.20;;;;;;;;;;5085362;28;20043;-74
2023/09/23 01:55:37;;;;;;;6.95;1.13;;;;;;;;;;5104843;28;20491;-74
2023/09/23 01:58:09;;;;;;;5.30;1.30;;;;;;;;;;5085065;28;20047;-75
2023/09/23 02:00:40;;;;;;;1.42;0.95;;;;;;;;;;5085241;28;20059;-75
2023/09/23 02:03:13;;;;;;;2.28;1.10;;;;;;;;;;5104967;28;20052;-75
2023/09/23 02:05:47;;;;;;;8.85;1.48;;;;;;;;;;5120032;27;20067;-74
2023/09/23 02:08:18;;;;;;;1.83;1.05;;;;;;;;;;5086639;28;20078;-74
2023/09/23 02:10:48;;;;;;;9.13;1.63;;;;;;;;;;5102170;27;20059;-74
2023/09/23 02:13:21;;;;;;;1.65;1.05;;;;;;;;;;5104189;28;20518;-77
2023/09/23 02:15:55;;;;;;;3.42;1.33;;;;;;;;;;5104941;28;20066;-74
2023/09/23 02:18:27;;;;;;;1.58;0.90;;;;;;;;;;5085645;28;20043;-75
2023/09/23 02:20:57;;;;;;;1.98;1.17;;;;;;;;;;5104392;28;20043;-76
2023/09/23 02:23:28;;;;;;;2.22;1.45;;;;;;;;;;5103663;28;20047;-75
2023/09/23 02:26:01;;;;;;;3.58;1.23;;;;;;;;;;5085618;28;20052;-75
2023/09/23 02:28:32;;;;;;;1.42;1.10;;;;;;;;;;5104551;28;20047;-75
2023/09/23 02:31:02;;;;;;;2.58;1.40;;;;;;;;;;5104226;28;20051;-74
2023/09/23 02:33:33;;;;;;;2.38;1.25;;;;;;;;;;5084438;28;20134;-75
2023/09/23 02:36:04;;;;;;;3.58;1.40;;;;;;;;;;5104003;28;20044;-75
2023/09/23 02:38:35;;;;;;;3.88;1.20;;;;;;;;;;5104478;28;20047;-75
2023/09/23 02:41:05;;;;;;;4.85;1.58;;;;;;;;;;5104213;28;20047;-76
2023/09/23 02:43:38;;;;;;;3.65;1.40;;;;;;;;;;5103427;28;20043;-75
2023/09/23 02:46:10;;;;;;;1.63;1.17;;;;;;;;;;5103217;28;20039;-75
2023/09/23 02:48:40;;;;;;;1.88;1.20;;;;;;;;;;5104148;28;20052;-75
2023/09/23 02:51:12;;;;;;;2.50;1.02;;;;;;;;;;5103373;28;20052;-75
2023/09/23 02:53:44;;;;;;;4.20;1.30;;;;;;;;;;5103584;28;20496;-74
2023/09/23 02:56:16;;;;;;;4.75;1.40;;;;;;;;;;5104100;28;20689;-75
2023/09/23 02:58:47;;;;;;;4.13;1.33;;;;;;;;;;5103329;28;20055;-75
2023/09/23 03:01:18;;;;;;;3.42;1.23;;;;;;;;;;5103816;28;20502;-75
2023/09/23 03:03:49;;;;;;;6.60;1.70;;;;;;;;;;5103447;28;20063;-75
2023/09/23 03:06:20;;;;;;;4.05;1.63;;;;;;;;;;5084778;28;20133;-75
2023/09/23 03:08:53;;;;;;;5.25;1.92;;;;;;;;;;5103581;28;20047;-75
2023/09/23 03:11:26;;;;;;;4.38;1.52;;;;;;;;;;5104110;28;20521;-75
2023/09/23 03:13:58;;;;;;;3.00;1.65;;;;;;;;;;5086168;28;20044;-75
2023/09/23 03:16:29;;;;;;;8.70;1.98;;;;;;;;;;5103145;28;20044;-74
2023/09/23 03:19:11;;;;;;;2.83;1.73;;;;;;;;;;5103298;28;20047;-75
2023/09/23 03:21:45;;;;;;;5.55;1.80;;;;;;;;;;5102581;28;20557;-74
2023/09/23 03:24:18;;;;;;;4.53;1.38;;;;;;;;;;5102658;28;20066;-76
2023/09/23 03:26:53;;;;;;;2.08;1.33;;;;;;;;;;5083653;28;20055;-76
2023/09/23 03:29:23;;;;;;;2.33;1.65;;;;;;;;;;5083861;28;20522;-75
2023/09/23 03:31:53;;;;;;;4.72;1.60;;;;;;;;;;5103012;28;20054;-75
2023/09/23 03:34:26;;;;;;;6.50;1.30;;;;;;;;;;5102650;28;20340;-75
2023/09/23 03:36:58;;;;;;;8.25;1.90;;;;;;;;;;5083428;28;20052;-74
2023/09/23 03:39:40;;;;;;;8.82;1.48;;;;;;;;;;5118234;27;20052;-74
2023/09/23 03:42:14;;;;;;;3.88;1.55;;;;;;;;;;5084170;28;20054;-75
2023/09/23 03:44:45;;;;;;;9.60;1.67;;;;;;;;;;5102984;28;20047;-75
2023/09/23 03:47:16;;;;;;;4.75;1.40;;;;;;;;;;5083642;28;20070;-75
2023/09/23 03:49:46;;;;;;;3.70;1.65;;;;;;;;;;5102963;28;20051;-75
2023/09/23 03:52:17;;;;;;;8.40;1.67;;;;;;;;;;5083634;28;20066;-75
2023/09/23 03:54:49;;;;;;;3.92;1.55;;;;;;;;;;5102828;28;20043;-75
2023/09/23 03:57:21;;;;;;;8.75;1.60;;;;;;;;;;5082184;28;20051;-75
2023/09/23 03:59:51;;;;;;;5.07;1.50;;;;;;;;;;5102386;28;20395;-74
2023/09/23 04:02:22;;;;;;;5.05;1.50;;;;;;;;;;5102650;28;20047;-75
2023/09/23 04:04:53;;;;;;;2.10;1.45;;;;;;;;;;5083921;28;20039;-75
2023/09/23 04:07:24;;;;;;;4.30;1.75;;;;;;;;;;5082829;28;20059;-75
2023/09/23 04:09:55;;;;;;;3.30;1.52;;;;;;;;;;5102569;28;20052;-75
2023/09/23 04:12:25;;;;;;;2.38;1.38;;;;;;;;;;5102537;28;20627;-75
2023/09/23 04:14:56;;;;;;;5.07;1.80;;;;;;;;;;5102425;28;20055;-74
2023/09/23 04:17:29;;;;;;;2.50;1.60;;;;;;;;;;5102417;28;20525;-75
2023/09/23 04:20:09;;;;;;;3.85;1.33;;;;;;;;;;5102599;28;20058;-75
2023/09/23 04:22:41;;;;;;;5.25;1.70;;;;;;;;;;5102293;28;20529;-75
2023/09/23 04:25:14;;;;;;;10.73;1.65;;;;;;;;;;5061623;28;20594;-74
2023/09/23 04:27:47;;;;;;;5.43;1.30;;;;;;;;;;5061885;28;20052;-75
2023/09/23 04:30:18;;;;;;;5.45;1.60;;;;;;;;;;5062042;28;20518;-74
2023/09/23 04:32:48;;;;;;;5.68;1.60;;;;;;;;;;5062442;28;20057;-74
2023/09/23 04:35:18;;;;;;;10.10;1.88;;;;;;;;;;5061846;28;20048;-74
2023/09/23 04:37:49;;;;;;;3.38;1.52;;;;;;;;;;5061669;28;20048;-74
2023/09/23 04:40:21;;;;;;;4.05;1.27;;;;;;;;;;5061275;28;20045;-74
2023/09/23 04:42:52;;;;;;;2.13;1.38;;;;;;;;;;5062187;28;20049;-74
2023/09/23 04:45:24;;;;;;;4.95;1.55;;;;;;;;;;5060205;28;20508;-75
2023/09/23 04:47:55;;;;;;;5.55;1.17;;;;;;;;;;5061817;28;20500;-74
2023/09/23 04:50:29;;;;;;;3.45;1.33;;;;;;;;;;5061567;28;20053;-75
2023/09/23 04:53:00;;;;;;;2.78;1.60;;;;;;;;;;5061459;28;20546;-75
2023/09/23 04:55:30;;;;;;;5.50;1.27;;;;;;;;;;5059171;28;20060;-75
2023/09/23 04:58:01;;;;;;;6.00;1.42;;;;;;;;;;5061242;28;20547;-74
2023/09/23 05:00:36;;;;;;;4.30;1.48;;;;;;;;;;5060920;28;20059;-75
2023/09/23 05:03:08;;;;;;;4.68;1.58;;;;;;;;;;5060876;28;20056;-75
2023/09/23 05:05:38;;;;;;;2.30;1.38;;;;;;;;;;5061135;28;20405;-77
2023/09/23 05:08:12;;;;;;;3.33;1.23;;;;;;;;;;5060355;28;20056;-74
2023/09/23 05:10:45;;;;;;;7.03;1.42;;;;;;;;;;5065178;28;20041;-74
2023/09/23 05:13:17;;;;;;;5.30;1.67;;;;;;;;;;5065732;28;20056;-75
2023/09/23 05:15:47;;;;;;;8.35;1.70;;;;;;;;;;5064798;28;20071;-74
2023/09/23 05:18:18;;;;;;;5.15;1.58;;;;;;;;;;5064806;28;20051;-74
2023/09/23 05:20:49;;;;;;;7.82;1.67;;;;;;;;;;5064587;28;20047;-74
2023/09/23 05:23:23;;;;;;;3.40;1.23;;;;;;;;;;5075284;28;20066;-74
2023/09/23 05:25:57;;;;;;;7.22;1.70;;;;;;;;;;5104957;28;20044;-74
2023/09/23 05:28:30;;;;;;;6.93;2.63;;;;;;;;;;5106065;28;20054;-74
2023/09/23 05:31:01;;;;;;;12.68;1.50;;;;;;;;;;5104828;28;20403;-74
2023/09/23 05:33:31;;;;;;;4.80;1.40;;;;;;;;;;5105046;28;20070;-74
2023/09/23 05:36:03;;;;;;;3.50;1.30;;;;;;;;;;5105082;28;20047;-75
2023/09/23 05:38:36;;;;;;;3.33;1.33;;;;;;;;;;5105291;28;20050;-75
2023/09/23 05:41:08;;;;;;;5.40;1.50;;;;;;;;;;5104899;28;20054;-74
2023/09/23 05:43:39;;;;;;;2.67;1.40;;;;;;;;;;5104819;28;20047;-74
2023/09/23 05:46:11;;;;;;;2.55;1.45;;;;;;;;;;5105409;28;20048;-74
2023/09/23 05:48:41;;;;;;;2.85;1.42;;;;;;;;;;5104848;28;20501;-74
2023/09/23 05:51:12;;;;;;;6.38;1.50;;;;;;;;;;5105479;28;20054;-74
2023/09/23 05:53:43;;;;;;;1.85;1.40;;;;;;;;;;5104317;28;20047;-74
2023/09/23 05:56:14;;;;;;;3.05;1.27;;;;;;;;;;5104456;28;20267;-74
2023/09/23 05:58:46;;;;;;;4.32;1.30;;;;;;;;;;5104408;28;20047;-74
2023/09/23 06:01:16;;;;;;;11.65;1.83;;;;;;;;;;5104826;28;20063;-73
2023/09/23 06:03:48;;;;;;;2.78;1.45;;;;;;;;;;5104871;28;20056;-74
2023/09/23 06:06:18;;;;;;;6.70;1.65;;;;;;;;;;5104337;28;20051;-75
2023/09/23 06:08:50;;;;;;;2.55;1.52;;;;;;;;;;5104607;28;20054;-74
2023/09/23 06:11:21;;;;;;;4.45;1.58;;;;;;;;;;5104856;28;20059;-74
2023/09/23 06:13:52;;;;;;;2.92;1.90;;;;;;;;;;5103773;28;20055;-74
2023/09/23 06:16:22;;;;;;;2.55;1.73;;;;;;;;;;5104259;28;20063;-74
2023/09/23 06:18:54;;;;;;;6.43;2.10;;;;;;;;;;5104531;28;20454;-74
2023/09/23 06:21:24;;;;;;;13.20;2.65;;;;;;;;;;5103524;28;20051;-74
2023/09/23 06:23:54;;;;;;;5.18;1.90;;;;;;;;;;5104136;28;20060;-74
2023/09/23 06:26:25;;;;;;;3.78;1.75;;;;;;;;;;5086063;28;20052;-74
2023/09/23 06:28:56;;;;;;;2.53;1.67;;;;;;;;;;5104367;28;20418;-74
2023/09/23 06:31:27;;;;;;;5.82;2.20;;;;;;;;;;5104262;28;20044;-74
2023/09/23 06:33:57;;;;;;;6.20;2.20;;;;;;;;;;5104426;28;20054;-74
2023/09/23 06:36:27;;;;;;;9.10;2.53;;;;;;;;;;5103994;28;20098;-74
2023/09/23 06:38:57;;;;;;;4.72;2.15;;;;;;;;;;5103993;28;20043;-74
2023/09/23 06:41:27;;;;;;;4.18;1.92;;;;;;;;;;5103372;28;20062;-74
2023/09/23 06:44:00;;;;;;;4.78;2.47;;;;;;;;;;5084844;28;20982;-74
2023/09/23 06:46:31;;;;;;;2.72;2.03;;;;;;;;;;5103445;28;20055;-74
2023/09/23 06:49:02;;;;;;;3.05;1.90;;;;;;;;;;5104305;28;20446;-74
2023/09/23 06:51:33;;;;;;;2.38;1.90;;;;;;;;;;5103255;28;20442;-74
2023/09/23 06:54:04;;;;;;;6.13;2.40;;;;;;;;;;5103309;28;20052;-74
2023/09/23 06:56:36;;;;;;;8.73;2.17;;;;;;;;;;5103597;28;20055;-74
2023/09/23 06:59:07;;;;;;;5.20;2.25;;;;;;;;;;5103492;28;20047;-75
2023/09/23 07:01:38;;;;;;;7.03;2.38;;;;;;;;;;5103989;28;20047;-74
2023/09/23 07:04:08;;;;;;;5.80;2.15;;;;;;;;;;5103798;28;20048;-74
2023/09/23 07:06:41;;;;;;;4.22;1.77;;;;;;;;;;5104394;28;20048;-74
2023/09/23 07:09:12;;;;;;;10.65;2.60;;;;;;;;;;5084184;28;20058;-74
2023/09/23 07:11:44;;;;;;;9.40;2.30;;;;;;;;;;5103184;28;20513;-74
2023/09/23 07:14:14;;;;;;;3.58;2.10;;;;;;;;;;5103227;28;20043;-74
2023/09/23 07:16:45;;;;;;;5.05;2.00;;;;;;;;;;5102994;28;20051;-74
2023/09/23 07:19:16;;;;;;;3.42;1.75;;;;;;;;;;5103076;28;20422;-74
2023/09/23 07:21:46;;;;;;;5.38;1.85;;;;;;;;;;5103280;28;20411;-74
2023/09/23 07:24:16;;;;;;;4.18;2.03;;;;;;;;;;5103032;28;20055;-74
2023/09/23 07:26:46;;;;;;;3.88;1.90;;;;;;;;;;5103365;28;20434;-74
2023/09/23 07:29:16;;;;;;;4.13;2.15;;;;;;;;;;5102353;28;20094;-74
2023/09/23 07:31:47;;;;;;;4.15;2.10;;;;;;;;;;5102779;28;20376;-74
2023/09/23 07:34:17;;;;;;;5.35;2.28;;;;;;;;;;5102618;28;20078;-74
2023/09/23 07:36:48;;;;;;;5.30;2.13;;;;;;;;;;5103311;28;20051;-74
2023/09/23 07:39:19;;;;;;;7.78;2.38;;;;;;;;;;5103185;28;20051;-74
2023/09/23 07:41:50;;;;;;;3.35;2.08;;;;;;;;;;5102824;28;20066;-74
2023/09/23 07:44:20;;;;;;;5.32;2.10;;;;;;;;;;5103011;28;20047;-74
2023/09/23 07:46:50;;;;;;;4.85;1.83;;;;;;;;;;5102592;28;20049;-74
2023/09/23 07:49:21;;;;;;;4.57;2.03;;;;;;;;;;5103098;28;20410;-74
2023/09/23 07:51:53;;;;;;;4.38;2.20;;;;;;;;;;5102730;28;20043;-74
2023/09/23 07:54:23;;;;;;;2.97;2.00;;;;;;;;;;5102293;28;20048;-74
2023/09/23 07:56:53;;;;;;;4.22;1.83;;;;;;;;;;5102566;28;20047;-75
2023/09/23 07:59:23;;;;;;;8.20;2.33;;;;;;;;;;5102663;28;20040;-74
2023/09/23 08:01:53;;;;;;;3.45;1.92;;;;;;;;;;5102672;28;20418;-74
2023/09/23 08:04:24;;;;;;;4.25;2.08;;;;;;;;;;5102437;28;20043;-74
2023/09/23 08:06:54;;;;;;;3.50;1.95;;;;;;;;;;5102171;28;20828;-74
2023/09/23 08:09:24;;;;;;;6.93;1.67;;;;;;;;;;5102243;28;20396;-74
2023/09/23 08:11:55;;;;;;;5.18;2.20;;;;;;;;;;5102990;28;20043;-74
2023/09/23 08:14:26;;;;;;;4.00;1.95;;;;;;;;;;5102867;28;20047;-75
2023/09/23 08:16:56;;;;;;;4.85;2.00;;;;;;;;;;5102611;28;20044;-74
2023/09/23 08:19:27;;;;;;;3.53;1.80;;;;;;;;;;5102957;28;20052;-74
2023/09/23 08:21:58;;;;;;;7.85;2.10;;;;;;;;;;5084451;28;20542;-74
2023/09/23 08:24:30;;;;;;;6.47;3.78;;;;;;;;;;5102130;28;20422;-74
2023/09/23 08:27:03;;;;;;;3.80;2.38;;;;;;;;;;5102286;28;20040;-74
2023/09/23 08:29:33;;;;;;;4.72;1.67;;;;;;;;;;5102562;28;20052;-75
2023/09/23 08:32:05;;;;;;;4.47;1.80;;;;;;;;;;5102418;28;20048;-74
2023/09/23 08:34:36;;;;;;;8.10;1.75;;;;;;;;;;5083306;28;20619;-74
2023/09/23 08:37:06;;;;;;;5.70;1.77;;;;;;;;;;5101821;28;20043;-74
2023/09/23 08:39:37;;;;;;;1.95;1.42;;;;;;;;;;5102021;28;20538;-74
2023/09/23 08:42:07;;;;;;;9.10;1.80;;;;;;;;;;5102355;28;20417;-74
2023/09/23 08:44:39;;;;;;;3.95;1.88;;;;;;;;;;5103484;28;20048;-74
2023/09/23 08:47:11;;;;;;;7.65;3.13;;;;;;;;;;5106552;28;20088;-74
2023/09/23 08:49:43;;;;;;;4.10;1.98;;;;;;;;;;5106026;28;20410;-74
2023/09/23 08:52:17;;;;;;;3.10;1.58;;;;;;;;;;5106826;28;20058;-74
2023/09/23 08:54:50;;;;;;;4.28;1.48;;;;;;;;;;5086525;28;20533;-74
2023/09/23 08:57:21;;;;;;;6.57;1.70;;;;;;;;;;5105553;28;20055;-74
2023/09/23 08:59:51;;;;;;;2.25;1.42;;;;;;;;;;5105971;28;20047;-74
2023/09/23 09:02:25;;;;;;;2.08;1.33;;;;;;;;;;5106084;28;20051;-74
2023/09/23 09:04:57;;;;;;;2.00;1.45;;;;;;;;;;5105412;28;20047;-75
2023/09/23 09:07:36;;;;;;;2.25;1.55;;;;;;;;;;5105199;28;20055;-75
2023/09/23 09:10:07;;;;;;;2.78;1.55;;;;;;;;;;5106066;28;20048;-74
2023/09/23 09:12:37;;;;;;;3.88;1.73;;;;;;;;;;5087763;28;20039;-74
2023/09/23 09:15:09;;;;;;;4.05;1.55;;;;;;;;;;5105741;28;20048;-72
2023/09/23 09:17:44;;;;;;;2.20;1.75;;;;;;;;;;5105294;28;20054;-72
2023/09/23 09:20:14;;;;;;;2.20;1.42;;;;;;;;;;5105320;28;20053;-73
2023/09/23 09:22:46;;;;;;;2.30;1.45;;;;;;;;;;5105149;28;20050;-74
2023/09/23 09:25:20;;;;;;;1.30;1.15;;;;;;;;;;5105381;28;20048;-73
2023/09/23 09:27:52;;;;;;;4.05;1.80;;;;;;;;;;5105822;28;20051;-73
2023/09/23 09:30:22;;;;;;;1.75;1.50;;;;;;;;;;5105278;28;21155;-73
2023/09/23 09:32:57;;;;;;;8.77;1.60;;;;;;;;;;5105209;28;20062;-74
2023/09/23 09:35:31;;;;;;;3.15;2.15;;;;;;;;;;5087766;28;20055;-73
2023/09/23 09:38:06;;;;;;;4.07;1.60;;;;;;;;;;5105047;28;20048;-73
2023/09/23 09:40:48;;;;;;;4.95;2.13;;;;;;;;;;5105074;28;20046;-74
2023/09/23 09:43:20;;;;;;;4.50;1.55;;;;;;;;;;5104613;28;20052;-74
2023/09/23 09:45:51;;;;;;;2.20;1.48;;;;;;;;;;5085836;28;20047;-73
2023/09/23 09:48:28;;;;;;;4.28;1.52;;;;;;;;;;5104564;28;20047;-73
2023/09/23 09:50:58;;;;;;;4.32;1.60;;;;;;;;;;5120266;27;20414;-74
2023/09/23 09:53:28;;;;;;;2.70;1.77;;;;;;;;;;5105016;28;20834;-75
2023/09/23 09:56:00;;;;;;;5.28;1.83;;;;;;;;;;5104595;28;20055;-73
2023/09/23 09:58:38;;;;;;;2.78;1.40;;;;;;;;;;5104827;28;20504;-73
2023/09/23 10:01:12;;;;;;;3.63;1.48;;;;;;;;;;5120146;27;20055;-74
2023/09/23 10:03:45;;;;;;;2.03;1.50;;;;;;;;;;5104043;28;20399;-74
2023/09/23 10:06:26;;;;;;;2.40;1.80;;;;;;;;;;5104956;28;20395;-73
2023/09/23 10:08:58;;;;;;;3.05;1.73;;;;;;;;;;5086078;28;20048;-73
2023/09/23 10:11:39;;;;;;;2.03;1.45;;;;;;;;;;5120390;27;20051;-75
2023/09/23 10:14:16;;;;;;;3.08;1.60;;;;;;;;;;5119136;27;20426;-74
2023/09/23 10:16:51;;;;;;;1.90;1.42;;;;;;;;;;5084362;28;20043;-74
2023/09/23 10:19:31;;;;;;;;;;;;;;;;;;5104881;28;20121;-73
2023/09/23 10:22:13;;;;;;;2.55;1.75;;;;;;;;;;5104313;28;20677;-73
2023/09/23 10:24:43;;;;;;;4.93;1.77;;;;;;;;;;5103986;28;20740;-73
2023/09/23 10:27:21;;;;;;;2.00;1.48;;;;;;;;;;5104412;28;20048;-73
2023/09/23 10:29:52;;;;;;;5.90;1.95;;;;;;;;;;5103869;28;20043;-73
2023/09/23 10:32:26;;;;;;;2.17;1.50;;;;;;;;;;5103887;28;20047;-73
2023/09/23 10:34:56;;;;;;;4.00;1.90;;;;;;;;;;5102746;28;20043;-73
2023/09/23 10:37:33;;;;;;;6.38;2.00;;;;;;;;;;5102153;28;20044;-74
2023/09/23 10:40:17;;;;;;;3.67;2.13;;;;;;;;;;5103146;28;20036;-73
2023/09/23 10:42:48;;;;;;;3.35;1.52;;;;;;;;;;5104114;28;20074;-73
2023/09/23 10:45:21;;;;;;;5.05;1.92;;;;;;;;;;5103319;28;20541;-75
2023/09/23 10:47:52;;;;;;;3.83;1.80;;;;;;;;;;5103292;28;20032;-73
2023/09/23 10:50:25;;;;;;;4.18;2.63;;;;;;;;;;5103375;28;20040;-73
2023/09/23 10:52:55;;;;;;;3.15;1.88;;;;;;;;;;5103566;28;20048;-74
2023/09/23 10:55:26;;;;;;;4.10;1.77;;;;;;;;;;5103460;28;20047;-73
2023/09/23 10:57:57;;;;;;;3.13;2.10;;;;;;;;;;5103290;28;20039;-73
2023/09/23 11:00:33;;;;;;;7.18;2.03;;;;;;;;;;5103265;28;20043;-73
2023/09/23 11:03:12;;;;;;;7.35;2.58;;;;;;;;;;5103459;28;20050;-73
2023/09/23 11:05:46;;;;;;;6.07;2.25;;;;;;;;;;5103271;28;20047;-73
2023/09/23 11:08:18;;;;;;;8.35;2.58;;;;;;;;;;5103093;28;20053;-73
2023/09/23 11:10:49;;;;;;;7.32;3.20;;;;;;;;;;5102828;28;20060;-77
2023/09/23 11:13:19;;;;;;;4.57;2.13;;;;;;;;;;5103814;28;20422;-77
2023/09/23 11:15:50;;;;;;;8.07;2.20;;;;;;;;;;5104070;28;20079;-73
2023/09/23 11:18:20;;;;;;;14.05;3.08;;;;;;;;;;5102893;28;20047;-73
2023/09/23 11:20:52;;;;;;;6.70;2.35;;;;;;;;;;5103073;28;20071;-74
2023/09/23 11:23:29;;;;;;;7.25;2.95;;;;;;;;;;5103208;28;20066;-75
2023/09/23 11:26:00;;;;;;;3.40;2.35;;;;;;;;;;5103497;28;20524;-74
2023/09/23 11:28:31;;;;;;;6.75;2.60;;;;;;;;;;5102982;28;20051;-74
2023/09/23 11:31:02;;;;;;;7.88;2.60;;;;;;;;;;5103114;28;20040;-74
2023/09/23 11:33:32;;;;;;;4.47;2.60;;;;;;;;;;5102808;28;20943;-74
2023/09/23 11:36:03;;;;;;;8.75;2.90;;;;;;;;;;5102615;28;20062;-76
2023/09/23 11:38:34;;;;;;;8.88;2.72;;;;;;;;;;5102794;28;20050;-74
2023/09/23 11:41:06;;;;;;;5.03;2.60;;;;;;;;;;5102192;28;20498;-74
2023/09/23 11:43:38;;;;;;;3.72;2.13;;;;;;;;;;5101745;28;20047;-74
2023/09/23 11:46:09;;;;;;;3.67;2.17;;;;;;;;;;5102946;28;20494;-75
2023/09/23 11:48:41;;;;;;;9.48;3.17;;;;;;;;;;5102777;28;20426;-75
2023/09/23 11:51:13;;;;;;;12.15;2.85;;;;;;;;;;5102896;28;20039;-75
2023/09/23 11:53:43;;;;;;;4.25;1.90;;;;;;;;;;5102560;28;20051;-74
2023/09/23 11:56:15;;;;;;;7.07;2.38;;;;;;;;;;5102368;28;20054;-74
2023/09/23 11:58:46;;;;;;;4.63;2.08;;;;;;;;;;5082930;28;20051;-74
2023/09/23 12:01:36;;;;;;;3.30;1.83;;;;;;;;;;5103560;28;20051;-76
2023/09/23 12:04:06;;;;;;;2.88;1.60;;;;;;;;;;5102909;28;20437;-74
2023/09/23 12:06:36;;;;;;;5.10;1.98;;;;;;;;;;5102395;28;20054;-74
2023/09/23 12:09:10;;;;;;;4.55;2.25;;;;;;;;;;5102654;28;20043;-79
2023/09/23 12:11:42;;;;;;;4.22;2.10;;;;;;;;;;5102194;28;20071;-75
2023/09/23 12:14:12;;;;;;;2.83;1.90;;;;;;;;;;5102191;28;20514;-74
2023/09/23 12:16:43;;;;;;;4.25;1.77;;;;;;;;;;5102193;28;20153;-74
2023/09/23 12:19:13;;;;;;;4.35;1.98;;;;;;;;;;5103035;28;20498;-74
2023/09/23 12:21:44;;;;;;;3.10;2.05;;;;;;;;;;5106959;28;20873;-74
2023/09/23 12:24:14;;;;;;;3.78;1.83;;;;;;;;;;5106075;28;20771;-73
2023/09/23 12:26:44;;;;;;;2.90;1.90;;;;;;;;;;5106657;28;20062;-73
2023/09/23 12:29:14;;;;;;;2.70;1.73;;;;;;;;;;5106535;28;20043;-74
2023/09/23 12:31:44;;;;;;;3.05;1.95;;;;;;;;;;5105832;28;20047;-73
2023/09/23 12:34:15;;;;;;;6.53;2.42;;;;;;;;;;5106568;28;20391;-73
2023/09/23 12:36:46;;;;;;;3.65;2.20;;;;;;;;;;5107455;28;19923;-73
2023/09/23 12:39:16;;;;;;;5.00;2.15;;;;;;;;;;5087725;28;20055;-73
2023/09/23 12:41:47;;;;;;;2.90;2.00;;;;;;;;;;5104662;28;20051;-77
2023/09/23 12:44:19;;;;;;;4.32;2.03;;;;;;;;;;5105771;28;20051;-73
2023/09/23 12:46:49;;;;;;;4.22;2.38;;;;;;;;;;5105910;28;20048;-73
2023/09/23 12:49:19;;;;;;;4.85;2.17;;;;;;;;;;5105986;28;20043;-73
2023/09/23 12:51:51;;;;;;;3.72;1.75;;;;;;;;;;5106015;28;20047;-73
2023/09/23 12:54:21;;;;;;;5.03;2.17;;;;;;;;;;5106170;28;20510;-73
2023/09/23 12:56:51;;;;;;;5.93;2.58;;;;;;;;;;5105022;28;20059;-74
2023/09/23 12:59:21;;;;;;;5.78;3.10;;;;;;;;;;5105746;28;20062;-74
2023/09/23 13:01:52;;;;;;;4.90;3.20;;;;;;;;;;5106206;28;20391;-77
2023/09/23 13:04:22;;;;;;;5.65;3.42;;;;;;;;;;5105998;28;20074;-75
2023/09/23 13:06:53;;;;;;;8.20;4.18;;;;;;;;;;5106100;28;20044;-74
2023/09/23 13:09:23;;;;;;;8.20;3.67;;;;;;;;;;5106839;28;20101;-74
2023/09/23 13:11:53;;;;;;;6.95;4.07;;;;;;;;;;5105689;28;20502;-74
2023/09/23 13:14:25;;;;;;;6.47;3.38;;;;;;;;;;5105582;28;20048;-75
2023/09/23 13:16:56;;;;;;;11.68;4.43;;;;;;;;;;5104098;28;20048;-77
2023/09/23 13:19:27;;;;;;;7.80;4.20;;;;;;;;;;5105052;28;20043;-76
2023/09/23 13:21:57;;;;;;;10.57;3.25;;;;;;;;;;5105524;28;20600;-75
2023/09/23 13:24:28;;;;;;;8.23;3.20;;;;;;;;;;5104705;28;20052;-75
2023/09/23 13:26:59;;;;;;;8.90;3.13;;;;;;;;;;5105824;28;20410;-76
2023/09/23 13:29:31;;;;;;;5.43;2.83;;;;;;;;;;5105078;28;20051;-76
2023/09/23 13:32:01;;;;;;;4.50;2.50;;;;;;;;;;5105043;28;20039;-76
2023/09/23 13:34:32;;;;;;;7.60;2.30;;;;;;;;;;5105460;28;20051;-76
2023/09/23 13:37:03;;;;;;;10.48;5.03;;;;;;;;;;5105261;28;20441;-75
2023/09/23 13:39:34;;;;;;;3.92;2.70;;;;;;;;;;5105456;28;20418;-76
2023/09/23 13:42:05;;;;;;;4.55;2.38;;;;;;;;;;5105453;28;20047;-76
2023/09/23 13:44:36;;;;;;;6.82;2.33;;;;;;;;;;5105306;28;20509;-74
2023/09/23 13:47:06;;;;;;;11.75;2.47;;;;;;;;;;5086388;28;20062;-76
2023/09/23 13:49:37;;;;;;;24.42;3.30;;;;;;;;;;5086488;28;20047;-76
2023/09/23 13:52:07;;;;;;;10.10;2.25;;;;;;;;;;5105288;28;20040;-79
2023/09/23 13:54:37;;;;;;;4.53;2.35;;;;;;;;;;5085448;28;20055;-76
2023/09/23 13:57:07;;;;;;;7.13;2.22;;;;;;;;;;5105376;28;20047;-77
2023/09/23 13:59:38;;;;;;;4.15;2.20;;;;;;;;;;5104611;28;20048;-75
2023/09/23 14:02:14;;;;;;;4.70;2.40;;;;;;;;;;5085949;28;20048;-75
2023/09/23 14:04:45;;;;;;;4.15;2.38;;;;;;;;;;5104833;28;20048;-75
2023/09/23 14:07:15;;;;;;;4.75;2.63;;;;;;;;;;5085691;28;20514;-76
2023/09/23 14:09:45;;;;;;;11.18;2.65;;;;;;;;;;5104743;28;20044;-75
2023/09/23 14:12:17;;;;;;;5.45;2.88;;;;;;;;;;5104586;28;20054;-75
2023/09/23 14:14:48;;;;;;;6.15;2.80;;;;;;;;;;5085507;28;20051;-75
2023/09/23 14:17:21;;;;;;;10.82;8.60;;;;;;;;;;5104218;28;20051;-75
2023/09/23 14:19:51;;;;;;;8.70;4.57;;;;;;;;;;5103929;28;20058;-75
2023/09/23 14:22:23;;;;;;;7.07;3.33;;;;;;;;;;5105030;28;20406;-75
2023/09/23 14:24:53;;;;;;;5.82;2.90;;;;;;;;;;5085364;28;20052;-75
2023/09/23 14:27:24;;;;;;;6.80;3.15;;;;;;;;;;5085534;28;20054;-75
2023/09/23 14:29:54;;;;;;;8.73;3.50;;;;;;;;;;5104330;28;20052;-75
2023/09/23 14:32:24;;;;;;;8.10;3.67;;;;;;;;;;5103966;28;20047;-75
2023/09/23 14:34:55;;;;;;;9.15;3.53;;;;;;;;;;5104572;28;20050;-75
2023/09/23 14:37:26;;;;;;;6.03;3.38;;;;;;;;;;5103813;28;20058;-75
2023/09/23 14:39:58;;;;;;;4.53;2.85;;;;;;;;;;5104709;28;20505;-75
2023/09/23 14:42:29;;;;;;;21.85;3.42;;;;;;;;;;5103124;28;20043;-75
2023/09/23 14:44:59;;;;;;;4.45;2.80;;;;;;;;;;5104176;28;21129;-75
2023/09/23 14:47:30;;;;;;;4.25;2.70;;;;;;;;;;5102530;28;20054;-75
2023/09/23 14:50:01;;;;;;;4.10;2.47;;;;;;;;;;5103917;28;20055;-76
2023/09/23 14:52:32;;;;;;;4.18;2.40;;;;;;;;;;5103541;28;20058;-75
2023/09/23 14:55:02;;;;;;;7.70;2.40;;;;;;;;;;5103404;28;20055;-76
2023/09/23 14:57:34;;;;;;;5.53;2.55;;;;;;;;;;5103772;28;20055;-75
2023/09/23 15:00:06;;;;;;;6.57;2.90;;;;;;;;;;5104676;28;20402;-76
2023/09/23 15:02:36;;;;;;;8.98;3.55;;;;;;;;;;5103856;28;20047;-74
2023/09/23 15:05:07;;;;;;;5.38;3.15;;;;;;;;;;5103364;28;20044;-75
2023/09/23 15:07:38;;;;;;;10.15;3.55;;;;;;;;;;5103660;28;20051;-75
2023/09/23 15:10:10;;;;;;;4.35;2.67;;;;;;;;;;5104034;28;20043;-75